OPKC/KHI METAR and TAF weather

Enter ICAO airport designator
Station Type Date Time Source
OPKC METAR 2023/01/30 11:00 UTC NOAA

OPKC 301100Z 07007KT 7000 NSC 26/M04 Q1016 NOSIG


Station Type Date Time Source
OPKC Decoded METAR 2023/01/30 11:00 UTC NOAA

Karachi Airport, Pakistan (OPKC) 24-54N 067-08E 22M
Jan 30, 2023 - 06:00 AM EST / 2023.01.30 1100 UTC
Wind: from the ENE (070 degrees) at 8 MPH (7 KT):0
Visibility: 4 mile(s):0
Temperature: 78 F (26 C)
Dew Point: 24 F (-4 C)
Relative Humidity: 13%
Pressure (altimeter): 30.00 in. Hg (1016 hPa)
ob: OPKC 301100Z 07007KT 7000 NSC 26/M04 Q1016 NOSIG
cycle: 11

Station Type Date Time Source
OPKC TAF 2023/01/30 12:47 UTC NOAA

TAF OPKC 300930Z 3012/3118 24012KT 6000 NSC
FM301700 05010KT 4000 HZ NSC
TEMPO 3100/3105 02005KT 2500 FU NSC
FM310500 05010G20KT 5000 HZ NSC

Example: see airport list